Bedum, Netherlands
Current Conditions -  °F | °C
As of 6:55 PM on Thursday 18 Dec 2014 (Local Time) from EHGG Reporting Station
Drizzle Drizzle  
Wind Chill: 52°   Ceiling: 800
Heat Index: 52°   Visibility: 6mi
Dew Point: 50°   Wind: 25mph
Humidity: 94%   Direction: 240°WSW
Pressure: 29.65"   Gusts: NA
Location:  53.3°N, 6.6°E
Report Text: EHGG 181755Z AUTO 24022KT 200V270 9000 DZ BKN008 BKN009 BKN011BKN015CB 11/10 Q1004 REDZ TEMPO 5000 -DZ BECMG BKN010
Loading
Personal Weather Stations






























Interactive Weather Map New forecast layout! Learn more

10-Day Weather Forecast

Advertisements
Track Severe Weather on mobile